sensor_id;sensor_type;location;lat;lon;timestamp;P1;durP1;ratioP1;P2;durP2;ratioP2
36355;SDS011;22384;54.302;18.596;2022-08-04T00:02:06;5.30;;;2.38;;
36355;SDS011;22384;54.302;18.596;2022-08-04T00:07:07;5.47;;;2.38;;
36355;SDS011;22384;54.302;18.596;2022-08-04T00:09:38;5.05;;;2.42;;
36355;SDS011;22384;54.302;18.596;2022-08-04T00:12:06;6.50;;;2.47;;
36355;SDS011;22384;54.302;18.596;2022-08-04T00:14:37;6.50;;;2.57;;
36355;SDS011;22384;54.302;18.596;2022-08-04T00:17:06;5.82;;;2.40;;
36355;SDS011;22384;54.302;18.596;2022-08-04T00:19:38;6.75;;;2.10;;
36355;SDS011;22384;54.302;18.596;2022-08-04T00:22:07;8.00;;;2.40;;
36355;SDS011;22384;54.302;18.596;2022-08-04T00:24:34;5.75;;;2.85;;
36355;SDS011;22384;54.302;18.596;2022-08-04T00:27:00;6.88;;;2.45;;
36355;SDS011;22384;54.302;18.596;2022-08-04T00:29:28;7.90;;;2.60;;
36355;SDS011;22384;54.302;18.596;2022-08-04T00:31:55;8.68;;;2.30;;
36355;SDS011;22384;54.302;18.596;2022-08-04T00:34:23;8.10;;;2.65;;
36355;SDS011;22384;54.302;18.596;2022-08-04T00:36:49;5.28;;;2.47;;
36355;SDS011;22384;54.302;18.596;2022-08-04T00:39:16;7.03;;;2.30;;
36355;SDS011;22384;54.302;18.596;2022-08-04T00:46:53;7.32;;;2.67;;
36355;SDS011;22384;54.302;18.596;2022-08-04T00:59:52;8.63;;;2.10;;
36355;SDS011;22384;54.302;18.596;2022-08-04T01:02:35;5.55;;;2.33;;
36355;SDS011;22384;54.302;18.596;2022-08-04T01:07:36;7.35;;;2.40;;
36355;SDS011;22384;54.302;18.596;2022-08-04T01:12:59;6.90;;;2.70;;
36355;SDS011;22384;54.302;18.596;2022-08-04T01:15:41;5.18;;;2.35;;
36355;SDS011;22384;54.302;18.596;2022-08-04T01:18:14;7.63;;;2.47;;
36355;SDS011;22384;54.302;18.596;2022-08-04T01:26:17;4.97;;;2.40;;
36355;SDS011;22384;54.302;18.596;2022-08-04T01:31:35;7.43;;;2.78;;
36355;SDS011;22384;54.302;18.596;2022-08-04T01:34:04;4.22;;;2.13;;
36355;SDS011;22384;54.302;18.596;2022-08-04T01:36:34;4.80;;;2.28;;
36355;SDS011;22384;54.302;18.596;2022-08-04T01:39:00;3.38;;;2.38;;
36355;SDS011;22384;54.302;18.596;2022-08-04T01:41:45;5.00;;;2.55;;
36355;SDS011;22384;54.302;18.596;2022-08-04T01:44:13;5.10;;;2.28;;
36355;SDS011;22384;54.302;18.596;2022-08-04T01:46:39;3.80;;;2.30;;
36355;SDS011;22384;54.302;18.596;2022-08-04T01:49:06;6.00;;;2.30;;
36355;SDS011;22384;54.302;18.596;2022-08-04T01:51:32;5.45;;;2.50;;
36355;SDS011;22384;54.302;18.596;2022-08-04T01:54:04;9.57;;;2.50;;
36355;SDS011;22384;54.302;18.596;2022-08-04T01:56:32;5.63;;;2.47;;
36355;SDS011;22384;54.302;18.596;2022-08-04T01:58:58;5.38;;;2.72;;
36355;SDS011;22384;54.302;18.596;2022-08-04T02:01:24;3.80;;;2.38;;
36355;SDS011;22384;54.302;18.596;2022-08-04T02:03:51;8.35;;;3.00;;
36355;SDS011;22384;54.302;18.596;2022-08-04T02:06:27;10.90;;;2.97;;
36355;SDS011;22384;54.302;18.596;2022-08-04T02:09:11;3.30;;;2.50;;
36355;SDS011;22384;54.302;18.596;2022-08-04T02:11:40;4.50;;;2.75;;
36355;SDS011;22384;54.302;18.596;2022-08-04T02:19:20;6.78;;;2.83;;
36355;SDS011;22384;54.302;18.596;2022-08-04T02:21:50;7.88;;;2.65;;
36355;SDS011;22384;54.302;18.596;2022-08-04T02:24:20;8.63;;;2.70;;
36355;SDS011;22384;54.302;18.596;2022-08-04T02:26:50;7.95;;;2.72;;
36355;SDS011;22384;54.302;18.596;2022-08-04T02:29:27;8.20;;;2.75;;
36355;SDS011;22384;54.302;18.596;2022-08-04T02:32:04;5.05;;;2.80;;
36355;SDS011;22384;54.302;18.596;2022-08-04T02:34:33;6.07;;;2.40;;
36355;SDS011;22384;54.302;18.596;2022-08-04T02:37:03;7.63;;;2.58;;
36355;SDS011;22384;54.302;18.596;2022-08-04T02:39:32;3.75;;;2.50;;
36355;SDS011;22384;54.302;18.596;2022-08-04T02:41:59;4.25;;;2.92;;
36355;SDS011;22384;54.302;18.596;2022-08-04T02:44:27;4.00;;;2.53;;
36355;SDS011;22384;54.302;18.596;2022-08-04T02:46:53;3.75;;;2.10;;
36355;SDS011;22384;54.302;18.596;2022-08-04T02:49:20;8.38;;;3.90;;
36355;SDS011;22384;54.302;18.596;2022-08-04T02:51:50;8.93;;;3.85;;
36355;SDS011;22384;54.302;18.596;2022-08-04T02:54:18;7.80;;;3.03;;
36355;SDS011;22384;54.302;18.596;2022-08-04T02:56:45;5.30;;;3.10;;
36355;SDS011;22384;54.302;18.596;2022-08-04T02:59:12;6.70;;;3.03;;
36355;SDS011;22384;54.302;18.596;2022-08-04T03:01:39;3.28;;;2.70;;
36355;SDS011;22384;54.302;18.596;2022-08-04T03:04:25;4.20;;;2.75;;
36355;SDS011;22384;54.302;18.596;2022-08-04T03:12:26;11.63;;;2.80;;
36355;SDS011;22384;54.302;18.596;2022-08-04T03:38:55;9.18;;;3.40;;
36355;SDS011;22384;54.302;18.596;2022-08-04T03:54:42;11.90;;;3.58;;
36355;SDS011;22384;54.302;18.596;2022-08-04T04:00:04;4.72;;;3.00;;
36355;SDS011;22384;54.302;18.596;2022-08-04T04:10:02;4.85;;;3.30;;
36355;SDS011;22384;54.302;18.596;2022-08-04T04:12:59;6.13;;;3.33;;
36355;SDS011;22384;54.302;18.596;2022-08-04T04:15:26;11.38;;;4.13;;
36355;SDS011;22384;54.302;18.596;2022-08-04T04:20:52;6.68;;;3.40;;
36355;SDS011;22384;54.302;18.596;2022-08-04T04:39:07;5.55;;;3.53;;
36355;SDS011;22384;54.302;18.596;2022-08-04T04:51:55;12.35;;;4.60;;
36355;SDS011;22384;54.302;18.596;2022-08-04T04:59:59;11.02;;;5.05;;
36355;SDS011;22384;54.302;18.596;2022-08-04T05:10:07;6.90;;;4.82;;
36355;SDS011;22384;54.302;18.596;2022-08-04T05:15:03;10.10;;;4.63;;
36355;SDS011;22384;54.302;18.596;2022-08-04T05:17:36;7.50;;;5.07;;
36355;SDS011;22384;54.302;18.596;2022-08-04T05:25:03;10.80;;;5.22;;
36355;SDS011;22384;54.302;18.596;2022-08-04T05:27:35;8.02;;;5.00;;
36355;SDS011;22384;54.302;18.596;2022-08-04T05:30:03;13.27;;;5.15;;
36355;SDS011;22384;54.302;18.596;2022-08-04T05:32:31;13.00;;;5.28;;
36355;SDS011;22384;54.302;18.596;2022-08-04T05:35:02;11.25;;;5.18;;
36355;SDS011;22384;54.302;18.596;2022-08-04T05:37:29;7.25;;;5.03;;
36355;SDS011;22384;54.302;18.596;2022-08-04T05:39:59;14.18;;;4.47;;
36355;SDS011;22384;54.302;18.596;2022-08-04T05:42:27;9.65;;;5.03;;
36355;SDS011;22384;54.302;18.596;2022-08-04T05:44:55;7.35;;;5.10;;
36355;SDS011;22384;54.302;18.596;2022-08-04T05:47:22;9.20;;;5.10;;
36355;SDS011;22384;54.302;18.596;2022-08-04T05:49:49;11.38;;;5.05;;
36355;SDS011;22384;54.302;18.596;2022-08-04T05:52:16;7.45;;;4.50;;
36355;SDS011;22384;54.302;18.596;2022-08-04T05:54:43;6.13;;;4.45;;
36355;SDS011;22384;54.302;18.596;2022-08-04T05:57:12;7.90;;;5.10;;
36355;SDS011;22384;54.302;18.596;2022-08-04T05:59:39;11.93;;;5.20;;
36355;SDS011;22384;54.302;18.596;2022-08-04T06:02:10;14.90;;;4.70;;
36355;SDS011;22384;54.302;18.596;2022-08-04T06:04:50;5.30;;;4.22;;
36355;SDS011;22384;54.302;18.596;2022-08-04T06:07:18;5.95;;;4.22;;
36355;SDS011;22384;54.302;18.596;2022-08-04T06:09:44;10.23;;;4.50;;
36355;SDS011;22384;54.302;18.596;2022-08-04T06:12:15;7.63;;;4.65;;
36355;SDS011;22384;54.302;18.596;2022-08-04T06:14:44;8.13;;;4.28;;
36355;SDS011;22384;54.302;18.596;2022-08-04T06:17:12;14.52;;;4.60;;
36355;SDS011;22384;54.302;18.596;2022-08-04T06:19:39;12.70;;;5.28;;
36355;SDS011;22384;54.302;18.596;2022-08-04T06:22:06;8.05;;;4.75;;
36355;SDS011;22384;54.302;18.596;2022-08-04T06:24:36;8.50;;;4.07;;
36355;SDS011;22384;54.302;18.596;2022-08-04T06:27:03;8.80;;;3.88;;
36355;SDS011;22384;54.302;18.596;2022-08-04T06:29:30;10.43;;;4.88;;
36355;SDS011;22384;54.302;18.596;2022-08-04T06:32:05;6.97;;;4.13;;
36355;SDS011;22384;54.302;18.596;2022-08-04T06:34:49;12.07;;;4.47;;
36355;SDS011;22384;54.302;18.596;2022-08-04T06:37:17;13.10;;;4.40;;
36355;SDS011;22384;54.302;18.596;2022-08-04T06:39:44;14.77;;;4.45;;
36355;SDS011;22384;54.302;18.596;2022-08-04T06:42:10;8.25;;;4.25;;
36355;SDS011;22384;54.302;18.596;2022-08-04T06:44:36;10.55;;;4.80;;
36355;SDS011;22384;54.302;18.596;2022-08-04T06:47:04;9.73;;;4.68;;
36355;SDS011;22384;54.302;18.596;2022-08-04T06:49:30;8.65;;;3.70;;
36355;SDS011;22384;54.302;18.596;2022-08-04T06:51:57;10.27;;;4.47;;
36355;SDS011;22384;54.302;18.596;2022-08-04T06:54:24;8.98;;;4.38;;
36355;SDS011;22384;54.302;18.596;2022-08-04T06:56:50;8.05;;;3.67;;
36355;SDS011;22384;54.302;18.596;2022-08-04T06:59:18;16.38;;;4.15;;
36355;SDS011;22384;54.302;18.596;2022-08-04T07:01:46;10.65;;;4.20;;
36355;SDS011;22384;54.302;18.596;2022-08-04T07:04:13;7.25;;;4.03;;
36355;SDS011;22384;54.302;18.596;2022-08-04T07:06:40;5.55;;;3.83;;
36355;SDS011;22384;54.302;18.596;2022-08-04T07:09:06;7.95;;;3.72;;
36355;SDS011;22384;54.302;18.596;2022-08-04T07:11:33;9.73;;;4.65;;
36355;SDS011;22384;54.302;18.596;2022-08-04T07:13:59;8.38;;;4.38;;
36355;SDS011;22384;54.302;18.596;2022-08-04T07:16:26;9.52;;;4.20;;
36355;SDS011;22384;54.302;18.596;2022-08-04T07:18:53;15.80;;;4.15;;
36355;SDS011;22384;54.302;18.596;2022-08-04T07:21:20;6.25;;;3.55;;
36355;SDS011;22384;54.302;18.596;2022-08-04T07:23:47;10.93;;;4.18;;
36355;SDS011;22384;54.302;18.596;2022-08-04T07:26:13;8.40;;;4.32;;
36355;SDS011;22384;54.302;18.596;2022-08-04T07:28:43;13.20;;;4.30;;
36355;SDS011;22384;54.302;18.596;2022-08-04T07:31:11;7.88;;;3.70;;
36355;SDS011;22384;54.302;18.596;2022-08-04T07:33:39;7.18;;;3.83;;
36355;SDS011;22384;54.302;18.596;2022-08-04T07:36:06;5.90;;;3.85;;
36355;SDS011;22384;54.302;18.596;2022-08-04T07:38:32;8.80;;;4.10;;
36355;SDS011;22384;54.302;18.596;2022-08-04T07:40:59;6.88;;;4.10;;
36355;SDS011;22384;54.302;18.596;2022-08-04T07:43:29;8.57;;;3.70;;
36355;SDS011;22384;54.302;18.596;2022-08-04T07:48:27;4.85;;;3.55;;
36355;SDS011;22384;54.302;18.596;2022-08-04T07:50:54;5.93;;;3.53;;
36355;SDS011;22384;54.302;18.596;2022-08-04T07:53:20;11.35;;;5.18;;
36355;SDS011;22384;54.302;18.596;2022-08-04T07:55:47;3.75;;;3.00;;
36355;SDS011;22384;54.302;18.596;2022-08-04T07:58:14;5.82;;;3.45;;
36355;SDS011;22384;54.302;18.596;2022-08-04T08:00:40;4.18;;;3.13;;
36355;SDS011;22384;54.302;18.596;2022-08-04T08:03:09;14.60;;;3.80;;
36355;SDS011;22384;54.302;18.596;2022-08-04T08:05:36;4.38;;;3.47;;
36355;SDS011;22384;54.302;18.596;2022-08-04T08:08:03;7.68;;;4.00;;
36355;SDS011;22384;54.302;18.596;2022-08-04T08:10:30;5.07;;;3.10;;
36355;SDS011;22384;54.302;18.596;2022-08-04T08:12:56;8.25;;;3.78;;
36355;SDS011;22384;54.302;18.596;2022-08-04T08:15:22;5.00;;;3.30;;
36355;SDS011;22384;54.302;18.596;2022-08-04T08:17:49;6.10;;;3.10;;
36355;SDS011;22384;54.302;18.596;2022-08-04T08:20:15;8.52;;;3.50;;
36355;SDS011;22384;54.302;18.596;2022-08-04T08:22:42;8.90;;;3.00;;
36355;SDS011;22384;54.302;18.596;2022-08-04T08:25:08;7.18;;;3.55;;
36355;SDS011;22384;54.302;18.596;2022-08-04T08:27:36;10.65;;;3.28;;
36355;SDS011;22384;54.302;18.596;2022-08-04T08:30:03;7.22;;;3.25;;
36355;SDS011;22384;54.302;18.596;2022-08-04T08:32:29;4.78;;;3.22;;
36355;SDS011;22384;54.302;18.596;2022-08-04T08:34:55;4.97;;;3.38;;
36355;SDS011;22384;54.302;18.596;2022-08-04T08:40:16;7.20;;;3.22;;
36355;SDS011;22384;54.302;18.596;2022-08-04T08:42:42;8.73;;;3.40;;
36355;SDS011;22384;54.302;18.596;2022-08-04T08:45:23;6.78;;;3.35;;
36355;SDS011;22384;54.302;18.596;2022-08-04T08:53:00;4.93;;;2.90;;
36355;SDS011;22384;54.302;18.596;2022-08-04T08:55:31;7.28;;;2.70;;
36355;SDS011;22384;54.302;18.596;2022-08-04T09:08:29;4.55;;;2.85;;
36355;SDS011;22384;54.302;18.596;2022-08-04T09:11:12;8.18;;;2.63;;
36355;SDS011;22384;54.302;18.596;2022-08-04T09:24:38;2.40;;;2.10;;
36355;SDS011;22384;54.302;18.596;2022-08-04T09:27:18;2.97;;;2.22;;
36355;SDS011;22384;54.302;18.596;2022-08-04T09:29:46;4.50;;;2.25;;
36355;SDS011;22384;54.302;18.596;2022-08-04T09:32:22;4.55;;;2.25;;
36355;SDS011;22384;54.302;18.596;2022-08-04T09:37:24;4.65;;;2.20;;
36355;SDS011;22384;54.302;18.596;2022-08-04T09:40:04;3.50;;;2.10;;
36355;SDS011;22384;54.302;18.596;2022-08-04T09:42:43;2.50;;;2.30;;
36355;SDS011;22384;54.302;18.596;2022-08-04T09:45:26;5.07;;;2.03;;
36355;SDS011;22384;54.302;18.596;2022-08-04T09:50:26;2.92;;;2.50;;
36355;SDS011;22384;54.302;18.596;2022-08-04T10:00:45;3.20;;;2.27;;
36355;SDS011;22384;54.302;18.596;2022-08-04T10:03:13;3.67;;;2.00;;
36355;SDS011;22384;54.302;18.596;2022-08-04T10:05:59;4.07;;;2.08;;
36355;SDS011;22384;54.302;18.596;2022-08-04T10:11:32;4.57;;;2.37;;
36355;SDS011;22384;54.302;18.596;2022-08-04T10:14:04;7.82;;;3.05;;
36355;SDS011;22384;54.302;18.596;2022-08-04T10:21:44;3.90;;;2.40;;
36355;SDS011;22384;54.302;18.596;2022-08-04T10:26:49;5.47;;;2.13;;
36355;SDS011;22384;54.302;18.596;2022-08-04T10:29:18;6.30;;;2.15;;
36355;SDS011;22384;54.302;18.596;2022-08-04T10:31:50;5.47;;;2.28;;
36355;SDS011;22384;54.302;18.596;2022-08-04T10:34:20;6.05;;;2.20;;
36355;SDS011;22384;54.302;18.596;2022-08-04T10:39:20;6.63;;;2.30;;
36355;SDS011;22384;54.302;18.596;2022-08-04T10:41:54;2.95;;;2.15;;
36355;SDS011;22384;54.302;18.596;2022-08-04T10:44:36;5.40;;;2.35;;
36355;SDS011;22384;54.302;18.596;2022-08-04T10:47:12;5.03;;;2.33;;
36355;SDS011;22384;54.302;18.596;2022-08-04T10:52:21;2.45;;;2.10;;
36355;SDS011;22384;54.302;18.596;2022-08-04T10:54:56;7.95;;;2.33;;
36355;SDS011;22384;54.302;18.596;2022-08-04T11:00:10;3.88;;;2.00;;
36355;SDS011;22384;54.302;18.596;2022-08-04T11:05:28;3.05;;;2.10;;
36355;SDS011;22384;54.302;18.596;2022-08-04T11:07:58;4.50;;;1.88;;
36355;SDS011;22384;54.302;18.596;2022-08-04T11:10:28;3.85;;;2.10;;
36355;SDS011;22384;54.302;18.596;2022-08-04T11:12:56;2.30;;;2.10;;
36355;SDS011;22384;54.302;18.596;2022-08-04T11:15:26;6.28;;;2.10;;
36355;SDS011;22384;54.302;18.596;2022-08-04T11:17:59;4.75;;;2.50;;
36355;SDS011;22384;54.302;18.596;2022-08-04T11:20:34;3.33;;;2.03;;
36355;SDS011;22384;54.302;18.596;2022-08-04T11:23:09;2.58;;;1.88;;
36355;SDS011;22384;54.302;18.596;2022-08-04T11:33:51;2.55;;;2.15;;
36355;SDS011;22384;54.302;18.596;2022-08-04T11:36:21;3.30;;;2.03;;
36355;SDS011;22384;54.302;18.596;2022-08-04T11:38:56;3.40;;;2.38;;
36355;SDS011;22384;54.302;18.596;2022-08-04T11:44:06;6.28;;;2.58;;
36355;SDS011;22384;54.302;18.596;2022-08-04T11:46:39;5.07;;;2.30;;
36355;SDS011;22384;54.302;18.596;2022-08-04T11:49:09;4.03;;;2.15;;
36355;SDS011;22384;54.302;18.596;2022-08-04T11:51:36;4.72;;;2.15;;
36355;SDS011;22384;54.302;18.596;2022-08-04T11:54:04;4.55;;;2.03;;
36355;SDS011;22384;54.302;18.596;2022-08-04T11:56:30;5.28;;;2.08;;
36355;SDS011;22384;54.302;18.596;2022-08-04T11:58:56;3.65;;;3.00;;
36355;SDS011;22384;54.302;18.596;2022-08-04T12:14:13;8.45;;;2.40;;
36355;SDS011;22384;54.302;18.596;2022-08-04T12:17:03;2.50;;;2.30;;
36355;SDS011;22384;54.302;18.596;2022-08-04T12:22:07;2.65;;;2.00;;
36355;SDS011;22384;54.302;18.596;2022-08-04T12:24:42;5.30;;;2.40;;
36355;SDS011;22384;54.302;18.596;2022-08-04T12:32:37;4.60;;;2.20;;
36355;SDS011;22384;54.302;18.596;2022-08-04T12:35:06;14.18;;;3.10;;
36355;SDS011;22384;54.302;18.596;2022-08-04T12:40:02;14.80;;;2.80;;
36355;SDS011;22384;54.302;18.596;2022-08-04T12:44:58;4.13;;;2.40;;
36355;SDS011;22384;54.302;18.596;2022-08-04T12:47:28;5.65;;;2.15;;
36355;SDS011;22384;54.302;18.596;2022-08-04T12:49:59;3.60;;;2.33;;
36355;SDS011;22384;54.302;18.596;2022-08-04T12:52:28;2.22;;;2.00;;
36355;SDS011;22384;54.302;18.596;2022-08-04T12:54:55;7.53;;;2.75;;
36355;SDS011;22384;54.302;18.596;2022-08-04T12:57:22;8.50;;;2.53;;
36355;SDS011;22384;54.302;18.596;2022-08-04T12:59:48;6.13;;;2.40;;
36355;SDS011;22384;54.302;18.596;2022-08-04T13:02:36;3.58;;;2.35;;
36355;SDS011;22384;54.302;18.596;2022-08-04T13:05:05;5.25;;;2.30;;
36355;SDS011;22384;54.302;18.596;2022-08-04T13:07:41;7.93;;;2.45;;
36355;SDS011;22384;54.302;18.596;2022-08-04T13:10:13;4.25;;;2.33;;
36355;SDS011;22384;54.302;18.596;2022-08-04T13:12:39;6.03;;;2.92;;
36355;SDS011;22384;54.302;18.596;2022-08-04T13:15:11;6.00;;;2.33;;
36355;SDS011;22384;54.302;18.596;2022-08-04T13:20:33;2.70;;;2.40;;
36355;SDS011;22384;54.302;18.596;2022-08-04T13:23:04;10.25;;;2.38;;
36355;SDS011;22384;54.302;18.596;2022-08-04T13:25:31;6.50;;;2.60;;
36355;SDS011;22384;54.302;18.596;2022-08-04T13:27:58;4.53;;;2.60;;
36355;SDS011;22384;54.302;18.596;2022-08-04T13:30:26;3.72;;;2.55;;
36355;SDS011;22384;54.302;18.596;2022-08-04T13:32:54;9.50;;;2.28;;
36355;SDS011;22384;54.302;18.596;2022-08-04T13:35:22;4.20;;;2.30;;
36355;SDS011;22384;54.302;18.596;2022-08-04T13:37:49;4.70;;;2.38;;
36355;SDS011;22384;54.302;18.596;2022-08-04T13:40:18;12.00;;;2.38;;
36355;SDS011;22384;54.302;18.596;2022-08-04T13:45:12;10.32;;;2.90;;
36355;SDS011;22384;54.302;18.596;2022-08-04T13:47:39;6.57;;;2.40;;
36355;SDS011;22384;54.302;18.596;2022-08-04T13:52:35;6.28;;;2.28;;
36355;SDS011;22384;54.302;18.596;2022-08-04T13:55:02;4.05;;;2.50;;
36355;SDS011;22384;54.302;18.596;2022-08-04T13:57:29;4.55;;;2.20;;
36355;SDS011;22384;54.302;18.596;2022-08-04T13:59:57;10.00;;;2.40;;
36355;SDS011;22384;54.302;18.596;2022-08-04T14:04:54;8.00;;;2.50;;
36355;SDS011;22384;54.302;18.596;2022-08-04T14:07:22;4.47;;;2.03;;
36355;SDS011;22384;54.302;18.596;2022-08-04T14:09:49;3.78;;;2.20;;
36355;SDS011;22384;54.302;18.596;2022-08-04T14:12:16;4.85;;;1.92;;
36355;SDS011;22384;54.302;18.596;2022-08-04T14:14:44;2.65;;;2.25;;
36355;SDS011;22384;54.302;18.596;2022-08-04T14:17:11;7.38;;;2.30;;
36355;SDS011;22384;54.302;18.596;2022-08-04T14:19:48;3.67;;;2.30;;
36355;SDS011;22384;54.302;18.596;2022-08-04T14:35:30;5.93;;;2.28;;
36355;SDS011;22384;54.302;18.596;2022-08-04T14:37:59;6.18;;;2.10;;
36355;SDS011;22384;54.302;18.596;2022-08-04T14:40:26;2.60;;;2.10;;
36355;SDS011;22384;54.302;18.596;2022-08-04T14:42:54;6.57;;;2.38;;
36355;SDS011;22384;54.302;18.596;2022-08-04T14:45:27;11.65;;;2.80;;
36355;SDS011;22384;54.302;18.596;2022-08-04T14:47:54;9.35;;;2.70;;
36355;SDS011;22384;54.302;18.596;2022-08-04T14:50:31;7.22;;;2.47;;
36355;SDS011;22384;54.302;18.596;2022-08-04T14:53:01;5.57;;;2.55;;
36355;SDS011;22384;54.302;18.596;2022-08-04T14:55:28;4.22;;;1.90;;
36355;SDS011;22384;54.302;18.596;2022-08-04T14:57:56;4.75;;;2.20;;
36355;SDS011;22384;54.302;18.596;2022-08-04T15:00:27;7.85;;;2.42;;
36355;SDS011;22384;54.302;18.596;2022-08-04T15:03:01;2.80;;;2.15;;
36355;SDS011;22384;54.302;18.596;2022-08-04T15:05:28;7.55;;;2.72;;
36355;SDS011;22384;54.302;18.596;2022-08-04T15:07:55;5.07;;;2.40;;
36355;SDS011;22384;54.302;18.596;2022-08-04T15:10:22;2.65;;;2.00;;
36355;SDS011;22384;54.302;18.596;2022-08-04T15:12:50;5.78;;;2.45;;
36355;SDS011;22384;54.302;18.596;2022-08-04T15:15:17;3.45;;;2.30;;
36355;SDS011;22384;54.302;18.596;2022-08-04T15:17:43;5.30;;;2.75;;
36355;SDS011;22384;54.302;18.596;2022-08-04T15:20:09;7.88;;;2.40;;
36355;SDS011;22384;54.302;18.596;2022-08-04T15:22:35;4.43;;;2.22;;
36355;SDS011;22384;54.302;18.596;2022-08-04T15:25:02;8.10;;;2.35;;
36355;SDS011;22384;54.302;18.596;2022-08-04T15:27:30;3.53;;;2.17;;
36355;SDS011;22384;54.302;18.596;2022-08-04T15:30:02;3.20;;;2.30;;
36355;SDS011;22384;54.302;18.596;2022-08-04T15:32:29;6.40;;;2.20;;
36355;SDS011;22384;54.302;18.596;2022-08-04T15:35:18;7.53;;;2.22;;
36355;SDS011;22384;54.302;18.596;2022-08-04T15:45:32;9.00;;;2.20;;
36355;SDS011;22384;54.302;18.596;2022-08-04T15:55:55;7.38;;;2.72;;
36355;SDS011;22384;54.302;18.596;2022-08-04T15:58:21;4.53;;;2.30;;
36355;SDS011;22384;54.302;18.596;2022-08-04T16:08:56;4.25;;;1.95;;
36355;SDS011;22384;54.302;18.596;2022-08-04T16:16:49;4.80;;;2.15;;
36355;SDS011;22384;54.302;18.596;2022-08-04T16:19:31;5.68;;;2.20;;
36355;SDS011;22384;54.302;18.596;2022-08-04T16:22:00;4.25;;;2.83;;
36355;SDS011;22384;54.302;18.596;2022-08-04T16:24:36;6.93;;;2.40;;
36355;SDS011;22384;54.302;18.596;2022-08-04T16:27:06;6.72;;;2.60;;
36355;SDS011;22384;54.302;18.596;2022-08-04T16:34:41;10.60;;;2.60;;
36355;SDS011;22384;54.302;18.596;2022-08-04T16:37:11;5.18;;;2.50;;
36355;SDS011;22384;54.302;18.596;2022-08-04T16:39:38;9.40;;;2.85;;
36355;SDS011;22384;54.302;18.596;2022-08-04T16:44:59;4.07;;;2.38;;
36355;SDS011;22384;54.302;18.596;2022-08-04T16:50:10;21.30;;;2.95;;
36355;SDS011;22384;54.302;18.596;2022-08-04T16:52:46;24.38;;;3.42;;
36355;SDS011;22384;54.302;18.596;2022-08-04T16:55:23;7.82;;;2.88;;
36355;SDS011;22384;54.302;18.596;2022-08-04T16:57:50;21.15;;;3.38;;
36355;SDS011;22384;54.302;18.596;2022-08-04T17:00:17;16.95;;;2.95;;
36355;SDS011;22384;54.302;18.596;2022-08-04T17:03:00;7.30;;;2.70;;
36355;SDS011;22384;54.302;18.596;2022-08-04T17:05:26;8.27;;;3.08;;
36355;SDS011;22384;54.302;18.596;2022-08-04T17:07:54;9.63;;;3.05;;
36355;SDS011;22384;54.302;18.596;2022-08-04T17:10:34;9.25;;;3.08;;
36355;SDS011;22384;54.302;18.596;2022-08-04T17:13:00;10.73;;;3.40;;
36355;SDS011;22384;54.302;18.596;2022-08-04T17:15:27;4.95;;;2.60;;
36355;SDS011;22384;54.302;18.596;2022-08-04T17:20:41;5.90;;;3.13;;
36355;SDS011;22384;54.302;18.596;2022-08-04T17:25:39;8.25;;;3.35;;
36355;SDS011;22384;54.302;18.596;2022-08-04T17:28:18;12.40;;;3.30;;
36355;SDS011;22384;54.302;18.596;2022-08-04T17:30:44;3.55;;;2.85;;
36355;SDS011;22384;54.302;18.596;2022-08-04T17:33:14;8.38;;;2.92;;
36355;SDS011;22384;54.302;18.596;2022-08-04T17:35:41;8.27;;;2.97;;
36355;SDS011;22384;54.302;18.596;2022-08-04T17:38:08;12.60;;;3.15;;
36355;SDS011;22384;54.302;18.596;2022-08-04T17:40:34;18.25;;;3.30;;
36355;SDS011;22384;54.302;18.596;2022-08-04T17:43:14;15.15;;;3.20;;
36355;SDS011;22384;54.302;18.596;2022-08-04T17:45:40;24.20;;;3.15;;
36355;SDS011;22384;54.302;18.596;2022-08-04T17:48:07;22.65;;;4.57;;
36355;SDS011;22384;54.302;18.596;2022-08-04T17:50:33;41.80;;;4.88;;
36355;SDS011;22384;54.302;18.596;2022-08-04T17:53:01;38.80;;;4.28;;
36355;SDS011;22384;54.302;18.596;2022-08-04T17:55:43;40.55;;;5.10;;
36355;SDS011;22384;54.302;18.596;2022-08-04T17:58:17;14.25;;;4.10;;
36355;SDS011;22384;54.302;18.596;2022-08-04T18:00:44;27.58;;;3.65;;
36355;SDS011;22384;54.302;18.596;2022-08-04T18:03:26;12.88;;;3.63;;
36355;SDS011;22384;54.302;18.596;2022-08-04T18:05:52;8.20;;;3.58;;
36355;SDS011;22384;54.302;18.596;2022-08-04T18:08:24;11.05;;;3.28;;
36355;SDS011;22384;54.302;18.596;2022-08-04T18:10:52;9.55;;;3.80;;
36355;SDS011;22384;54.302;18.596;2022-08-04T18:13:19;8.63;;;3.35;;
36355;SDS011;22384;54.302;18.596;2022-08-04T18:15:45;5.55;;;3.67;;
36355;SDS011;22384;54.302;18.596;2022-08-04T18:18:16;11.20;;;3.65;;
36355;SDS011;22384;54.302;18.596;2022-08-04T18:20:42;9.77;;;3.17;;
36355;SDS011;22384;54.302;18.596;2022-08-04T18:23:09;5.43;;;3.35;;
36355;SDS011;22384;54.302;18.596;2022-08-04T18:25:35;5.75;;;2.97;;
36355;SDS011;22384;54.302;18.596;2022-08-04T18:28:03;5.15;;;3.47;;
36355;SDS011;22384;54.302;18.596;2022-08-04T18:30:33;5.30;;;3.92;;
36355;SDS011;22384;54.302;18.596;2022-08-04T18:33:00;10.90;;;4.03;;
36355;SDS011;22384;54.302;18.596;2022-08-04T18:35:27;17.25;;;4.80;;
36355;SDS011;22384;54.302;18.596;2022-08-04T18:37:53;11.07;;;3.50;;
36355;SDS011;22384;54.302;18.596;2022-08-04T18:40:20;8.45;;;4.05;;
36355;SDS011;22384;54.302;18.596;2022-08-04T18:42:46;15.02;;;4.50;;
36355;SDS011;22384;54.302;18.596;2022-08-04T18:45:13;11.75;;;4.10;;
36355;SDS011;22384;54.302;18.596;2022-08-04T18:47:39;9.23;;;3.72;;
36355;SDS011;22384;54.302;18.596;2022-08-04T18:50:06;9.65;;;4.50;;
36355;SDS011;22384;54.302;18.596;2022-08-04T18:52:33;29.00;;;5.47;;
36355;SDS011;22384;54.302;18.596;2022-08-04T18:54:59;10.95;;;4.22;;
36355;SDS011;22384;54.302;18.596;2022-08-04T18:57:27;11.40;;;4.22;;
36355;SDS011;22384;54.302;18.596;2022-08-04T18:59:53;16.60;;;4.45;;
36355;SDS011;22384;54.302;18.596;2022-08-04T19:02:20;11.93;;;4.30;;
36355;SDS011;22384;54.302;18.596;2022-08-04T19:04:46;11.65;;;4.93;;
36355;SDS011;22384;54.302;18.596;2022-08-04T19:07:15;17.23;;;4.25;;
36355;SDS011;22384;54.302;18.596;2022-08-04T19:09:42;13.25;;;4.15;;
36355;SDS011;22384;54.302;18.596;2022-08-04T19:12:08;11.07;;;4.65;;
36355;SDS011;22384;54.302;18.596;2022-08-04T19:14:35;9.82;;;4.50;;
36355;SDS011;22384;54.302;18.596;2022-08-04T19:17:01;9.20;;;4.78;;
36355;SDS011;22384;54.302;18.596;2022-08-04T19:19:28;11.40;;;5.03;;
36355;SDS011;22384;54.302;18.596;2022-08-04T19:21:54;15.02;;;5.28;;
36355;SDS011;22384;54.302;18.596;2022-08-04T19:24:21;6.45;;;3.95;;
36355;SDS011;22384;54.302;18.596;2022-08-04T19:26:47;9.27;;;5.05;;
36355;SDS011;22384;54.302;18.596;2022-08-04T19:29:13;18.02;;;4.85;;
36355;SDS011;22384;54.302;18.596;2022-08-04T19:31:40;15.52;;;5.40;;
36355;SDS011;22384;54.302;18.596;2022-08-04T19:34:06;8.35;;;4.90;;
36355;SDS011;22384;54.302;18.596;2022-08-04T19:36:33;8.20;;;4.80;;
36355;SDS011;22384;54.302;18.596;2022-08-04T19:39:02;8.55;;;4.82;;
36355;SDS011;22384;54.302;18.596;2022-08-04T19:41:29;9.88;;;5.10;;
36355;SDS011;22384;54.302;18.596;2022-08-04T19:43:58;12.15;;;4.68;;
36355;SDS011;22384;54.302;18.596;2022-08-04T19:46:24;12.85;;;5.05;;
36355;SDS011;22384;54.302;18.596;2022-08-04T19:48:52;14.63;;;5.07;;
36355;SDS011;22384;54.302;18.596;2022-08-04T19:51:19;15.32;;;5.97;;
36355;SDS011;22384;54.302;18.596;2022-08-04T19:53:46;9.20;;;5.32;;
36355;SDS011;22384;54.302;18.596;2022-08-04T19:56:12;9.05;;;5.05;;